createdAt,value
2022-09-06T00:01:43.299Z,42.53
2022-09-06T00:04:15.082Z,43.01
2022-09-06T00:06:42.650Z,42.87
2022-09-06T00:09:11.129Z,43.03
2022-09-06T00:11:38.250Z,42.96
2022-09-06T00:14:05.522Z,42.96
2022-09-06T00:16:32.740Z,42.69
2022-09-06T00:18:59.898Z,42.74
2022-09-06T00:21:29.372Z,42.96
2022-09-06T00:23:56.936Z,42.78
2022-09-06T00:26:25.454Z,42.82
2022-09-06T00:28:52.599Z,42.70
2022-09-06T00:31:21.935Z,42.96
2022-09-06T00:33:49.964Z,42.60
2022-09-06T00:36:17.628Z,42.79
2022-09-06T00:38:45.000Z,42.63
2022-09-06T00:41:14.666Z,42.64
2022-09-06T00:43:43.674Z,42.84
2022-09-06T00:46:14.985Z,43.05
2022-09-06T00:48:43.949Z,42.63
2022-09-06T00:51:15.184Z,43.01
2022-09-06T00:53:42.700Z,42.89
2022-09-06T00:56:10.200Z,43.15
2022-09-06T00:58:37.820Z,43.25
2022-09-06T01:01:06.440Z,42.94
2022-09-06T01:03:34.974Z,42.97
2022-09-06T01:06:17.480Z,43.29
2022-09-06T01:08:59.215Z,43.28
2022-09-06T01:11:43.727Z,42.71
2022-09-06T01:14:30.416Z,42.67
2022-09-06T01:17:07.958Z,43.10
2022-09-06T01:20:09.321Z,42.94
2022-09-06T01:23:12.574Z,42.69
2022-09-06T01:25:58.992Z,43.21
2022-09-06T01:28:33.401Z,42.72
2022-09-06T01:31:18.885Z,43.00
2022-09-06T01:33:50.808Z,42.74
2022-09-06T01:36:22.850Z,42.72
2022-09-06T01:38:50.267Z,42.79
2022-09-06T01:41:17.397Z,42.74
2022-09-06T01:43:50.442Z,43.25
2022-09-06T01:46:25.712Z,43.08
2022-09-06T01:49:08.067Z,43.28
2022-09-06T01:51:50.362Z,42.85
2022-09-06T01:54:30.819Z,43.05
2022-09-06T01:57:08.815Z,42.89
2022-09-06T01:59:51.003Z,42.77
2022-09-06T02:02:24.968Z,42.72
2022-09-06T02:04:56.801Z,43.15
2022-09-06T02:07:27.418Z,42.94
2022-09-06T02:10:00.337Z,43.01
2022-09-06T02:12:30.218Z,43.24
2022-09-06T02:15:02.383Z,43.01
2022-09-06T02:17:33.271Z,42.88
2022-09-06T02:20:05.230Z,43.02
2022-09-06T02:22:39.498Z,43.15
2022-09-06T02:25:10.755Z,43.20
2022-09-06T02:27:38.061Z,42.87
2022-09-06T02:30:08.044Z,43.37
2022-09-06T02:32:39.046Z,42.94
2022-09-06T02:35:09.674Z,43.08
2022-09-06T02:37:36.875Z,43.21
2022-09-06T02:40:04.660Z,43.01
2022-09-06T02:42:31.891Z,43.02
2022-09-06T02:44:59.065Z,43.32
2022-09-06T02:47:27.548Z,43.12
2022-09-06T02:49:54.673Z,43.38
2022-09-06T02:52:21.804Z,43.37
2022-09-06T02:54:48.908Z,42.80
2022-09-06T02:57:16.032Z,43.06
2022-09-06T02:59:43.150Z,43.29
2022-09-06T03:02:10.414Z,42.90
2022-09-06T03:04:38.943Z,43.08
2022-09-06T03:07:06.053Z,43.44
2022-09-06T03:09:33.245Z,43.17
2022-09-06T03:12:00.412Z,43.00
2022-09-06T03:14:27.516Z,43.21
2022-09-06T03:16:54.685Z,42.88
2022-09-06T03:19:21.848Z,43.24
2022-09-06T03:21:50.335Z,43.04
2022-09-06T03:24:17.489Z,43.14
2022-09-06T03:26:44.632Z,43.24
2022-09-06T03:29:11.754Z,43.29
2022-09-06T03:31:38.885Z,43.14
2022-09-06T03:34:10.291Z,42.99
2022-09-06T03:36:38.223Z,43.04
2022-09-06T03:39:06.773Z,42.93
2022-09-06T03:41:33.930Z,43.25
2022-09-06T03:44:01.311Z,43.16
2022-09-06T03:46:28.430Z,43.31
2022-09-06T03:48:55.574Z,43.08
2022-09-06T03:51:22.873Z,43.07
2022-09-06T03:53:50.096Z,42.91
2022-09-06T03:56:18.596Z,43.41
2022-09-06T03:58:45.892Z,43.22
2022-09-06T04:01:13.144Z,43.15
2022-09-06T04:03:40.746Z,42.92
2022-09-06T04:06:08.723Z,43.36
2022-09-06T04:08:36.781Z,43.29
2022-09-06T04:11:04.887Z,43.11
2022-09-06T04:13:34.348Z,43.37
2022-09-06T04:16:01.881Z,43.31
2022-09-06T04:18:29.546Z,43.17
2022-09-06T04:20:57.885Z,43.45
2022-09-06T04:23:26.582Z,43.28
2022-09-06T04:25:55.317Z,43.11
2022-09-06T04:28:23.277Z,43.40
2022-09-06T04:30:54.084Z,43.19
2022-09-06T04:33:21.644Z,43.26
2022-09-06T04:35:49.479Z,42.87
2022-09-06T04:38:16.649Z,43.19
2022-09-06T04:40:43.764Z,43.10
2022-09-06T04:43:10.889Z,43.21
2022-09-06T04:45:38.074Z,43.45
2022-09-06T04:48:06.598Z,43.30
2022-09-06T04:50:33.895Z,43.06
2022-09-06T04:53:01.030Z,43.03
2022-09-06T04:55:28.234Z,43.28
2022-09-06T04:57:55.357Z,43.31
2022-09-06T05:00:22.463Z,43.77
2022-09-06T05:02:49.612Z,43.42
2022-09-06T05:05:18.172Z,43.24
2022-09-06T05:07:45.286Z,43.34
2022-09-06T05:10:12.409Z,43.43
2022-09-06T05:12:43.622Z,43.51
2022-09-06T05:15:11.543Z,43.65
2022-09-06T05:17:38.671Z,43.20
2022-09-06T05:20:06.653Z,43.07
2022-09-06T05:22:35.123Z,43.27
2022-09-06T05:25:02.390Z,44.04
2022-09-06T05:27:29.527Z,43.72
2022-09-06T05:29:56.636Z,43.42
2022-09-06T05:32:23.819Z,44.02
2022-09-06T05:34:50.943Z,44.80
2022-09-06T05:37:18.046Z,45.83
2022-09-06T05:39:46.547Z,45.19
2022-09-06T05:42:18.548Z,45.36
2022-09-06T05:44:46.729Z,51.11
2022-09-06T05:47:13.849Z,48.96
2022-09-06T05:49:40.998Z,49.17
2022-09-06T05:52:08.147Z,47.99
2022-09-06T05:54:35.288Z,47.99
2022-09-06T05:57:04.074Z,47.17
2022-09-06T05:59:31.259Z,47.51
2022-09-06T06:01:58.388Z,47.12
2022-09-06T06:04:25.562Z,47.55
2022-09-06T06:06:52.669Z,48.71
2022-09-06T06:09:21.030Z,47.63
2022-09-06T06:11:48.143Z,46.16
2022-09-06T06:14:16.636Z,48.11
2022-09-06T06:16:43.842Z,47.99
2022-09-06T06:19:11.015Z,47.08
2022-09-06T06:21:38.152Z,47.10
2022-09-06T06:24:06.243Z,46.77
2022-09-06T06:26:35.061Z,46.39
2022-09-06T06:29:02.702Z,46.38
2022-09-06T06:31:32.686Z,46.44
2022-09-06T06:34:00.276Z,45.99
2022-09-06T06:36:27.625Z,45.88
2022-09-06T06:38:55.562Z,45.64
2022-09-06T06:41:24.285Z,45.68
2022-09-06T06:43:52.613Z,45.39
2022-09-06T06:46:20.912Z,45.18
2022-09-06T06:48:52.763Z,45.33
2022-09-06T06:51:23.311Z,45.61
2022-09-06T06:53:50.608Z,45.09
2022-09-06T06:56:19.436Z,45.53
2022-09-06T06:58:48.128Z,45.49
2022-09-06T07:01:15.539Z,45.23
2022-09-06T07:03:43.063Z,44.98
2022-09-06T07:06:12.307Z,45.44
2022-09-06T07:08:40.749Z,45.38
2022-09-06T07:11:09.868Z,44.99
2022-09-06T07:13:37.263Z,45.39
2022-09-06T07:16:09.281Z,44.97
2022-09-06T07:18:36.804Z,45.24
2022-09-06T07:24:09.072Z,44.92
2022-09-06T07:26:39.607Z,44.99
2022-09-06T07:29:07.872Z,44.53
2022-09-06T07:34:22.711Z,44.61
2022-09-06T07:36:52.140Z,44.73
2022-09-06T07:39:20.818Z,44.73
2022-09-06T07:41:47.972Z,44.73
2022-09-06T07:44:15.100Z,44.41
2022-09-06T07:46:42.406Z,44.74
2022-09-06T07:49:09.864Z,44.78
2022-09-06T07:51:37.005Z,44.50
2022-09-06T07:54:28.941Z,44.81
2022-09-06T07:56:53.038Z,44.70
2022-09-06T07:59:20.161Z,45.00
2022-09-06T08:01:47.360Z,44.72
2022-09-06T08:04:14.966Z,44.59
2022-09-06T08:09:30.894Z,44.68
2022-09-06T08:11:59.484Z,44.77
2022-09-06T08:14:26.623Z,44.48
2022-09-06T08:16:53.785Z,44.52
2022-09-06T08:19:20.890Z,44.39
2022-09-06T08:21:47.991Z,44.37
2022-09-06T08:24:15.308Z,44.86
2022-09-06T08:26:42.440Z,44.52
2022-09-06T08:29:11.671Z,44.54
2022-09-06T08:31:40.413Z,44.77
2022-09-06T08:34:08.147Z,44.61
2022-09-06T08:36:35.592Z,44.50
2022-09-06T08:39:05.247Z,44.51
2022-09-06T08:41:37.562Z,44.50
2022-09-06T08:47:00.563Z,44.47
2022-09-06T08:49:32.271Z,44.27
2022-09-06T08:52:25.562Z,44.40
2022-09-06T08:55:03.960Z,44.63
2022-09-06T08:57:49.450Z,44.46
2022-09-06T09:00:17.260Z,44.65
2022-09-06T09:02:49.120Z,44.68
2022-09-06T09:05:24.919Z,44.37
2022-09-06T09:08:00.539Z,44.72
2022-09-06T09:10:30.450Z,44.59
2022-09-06T09:13:00.903Z,44.67
2022-09-06T09:15:28.094Z,44.57
2022-09-06T09:17:56.801Z,44.35
2022-09-06T09:20:23.969Z,44.43
2022-09-06T09:22:51.144Z,44.63
2022-09-06T09:25:22.486Z,44.57
2022-09-06T09:27:52.330Z,44.33
2022-09-06T09:33:22.223Z,44.43
2022-09-06T09:35:50.073Z,44.48
2022-09-06T09:38:21.557Z,44.71
2022-09-06T09:40:53.100Z,44.75
2022-09-06T09:43:22.699Z,44.60
2022-09-06T09:46:09.882Z,44.49
2022-09-06T09:48:39.244Z,44.73
2022-09-06T09:51:26.300Z,44.56
2022-09-06T09:53:55.729Z,44.51
2022-09-06T09:56:34.346Z,44.48
2022-09-06T09:59:02.935Z,44.37
2022-09-06T10:01:32.042Z,44.52
2022-09-06T10:09:42.584Z,44.70
2022-09-06T10:12:15.935Z,44.57
2022-09-06T10:14:45.264Z,45.01
2022-09-06T10:17:20.308Z,44.85
2022-09-06T10:19:48.951Z,45.09
2022-09-06T10:22:38.265Z,45.01
2022-09-06T10:25:30.983Z,44.82
2022-09-06T10:28:22.676Z,44.95
2022-09-06T10:31:04.085Z,44.66
2022-09-06T10:33:38.171Z,45.04
2022-09-06T10:36:07.809Z,44.74
2022-09-06T10:38:48.294Z,44.90
2022-09-06T10:41:30.907Z,44.75
2022-09-06T10:44:11.283Z,44.96
2022-09-06T10:46:43.890Z,44.90
2022-09-06T10:49:16.882Z,45.06
2022-09-06T10:51:49.410Z,45.00
2022-09-06T10:54:19.569Z,44.72
2022-09-06T10:56:53.714Z,44.91
2022-09-06T10:59:41.403Z,45.13
2022-09-06T11:02:23.127Z,45.23
2022-09-06T11:07:42.055Z,44.97
2022-09-06T11:10:16.625Z,45.16
2022-09-06T11:12:47.639Z,45.33
2022-09-06T11:15:16.403Z,45.04
2022-09-06T11:17:51.990Z,45.02
2022-09-06T11:20:27.487Z,45.30
2022-09-06T11:23:20.263Z,44.78
2022-09-06T11:26:24.892Z,44.87
2022-09-06T11:28:55.218Z,45.26
2022-09-06T11:34:20.323Z,44.74
2022-09-06T11:36:49.459Z,45.19
2022-09-06T11:42:41.739Z,45.15
2022-09-06T11:45:17.946Z,45.06
2022-09-06T11:47:46.480Z,44.98
2022-09-06T11:50:46.806Z,45.07
2022-09-06T11:53:16.122Z,45.08
2022-09-06T11:55:46.566Z,45.50
2022-09-06T11:58:27.756Z,45.46
2022-09-06T12:01:32.295Z,45.28
2022-09-06T12:04:07.041Z,45.25
2022-09-06T12:06:38.233Z,45.20
2022-09-06T12:09:27.486Z,45.14
2022-09-06T12:11:56.493Z,45.28
2022-09-06T12:14:33.058Z,45.29
2022-09-06T12:17:27.089Z,45.01
2022-09-06T12:19:57.141Z,44.84
2022-09-06T12:23:00.836Z,44.75
2022-09-06T12:25:52.677Z,44.70
2022-09-06T12:28:31.527Z,44.95
2022-09-06T12:30:58.814Z,44.85
2022-09-06T12:33:31.345Z,44.75
2022-09-06T12:36:13.599Z,44.82
2022-09-06T12:38:53.414Z,44.48
2022-09-06T12:41:20.748Z,44.81
2022-09-06T12:43:49.910Z,44.75
2022-09-06T12:46:17.342Z,44.54
2022-09-06T12:48:59.907Z,45.00
2022-09-06T12:51:27.138Z,44.99
2022-09-06T12:53:55.479Z,44.74
2022-09-06T12:56:24.927Z,44.63
2022-09-06T12:59:09.475Z,44.63
2022-09-06T13:01:37.489Z,44.31
2022-09-06T13:04:09.509Z,44.68
2022-09-06T13:06:41.780Z,44.14
2022-09-06T13:09:13.106Z,44.33
2022-09-06T13:11:44.697Z,44.03
2022-09-06T13:14:17.550Z,44.51
2022-09-06T13:16:47.218Z,44.45
2022-09-06T13:19:16.458Z,44.41
2022-09-06T13:21:45.099Z,44.21
2022-09-06T13:24:19.998Z,44.33
2022-09-06T13:26:47.172Z,44.14
2022-09-06T13:29:28.890Z,44.13
2022-09-06T13:31:57.403Z,44.64
2022-09-06T13:34:26.595Z,44.67
2022-09-06T13:36:59.285Z,44.68
2022-09-06T13:39:33.694Z,44.25
2022-09-06T13:42:03.345Z,44.60
2022-09-06T13:44:33.859Z,44.43
2022-09-06T13:47:01.309Z,44.34
2022-09-06T13:49:29.034Z,44.46
2022-09-06T13:52:00.062Z,44.07
2022-09-06T13:54:27.751Z,43.92
2022-09-06T13:56:55.067Z,44.41
2022-09-06T13:59:22.978Z,44.20
2022-09-06T14:01:59.314Z,43.92
2022-09-06T14:04:26.511Z,44.08
2022-09-06T14:06:53.667Z,44.27
2022-09-06T14:09:20.826Z,44.29
2022-09-06T14:11:48.515Z,44.18
2022-09-06T14:14:16.170Z,44.15
2022-09-06T14:16:43.379Z,44.31
2022-09-06T14:19:11.907Z,44.32
2022-09-06T14:21:39.720Z,44.18
2022-09-06T14:24:07.218Z,44.21
2022-09-06T14:26:36.528Z,44.33
2022-09-06T14:29:04.288Z,44.38
2022-09-06T14:31:31.951Z,44.25
2022-09-06T14:33:59.264Z,44.22
2022-09-06T14:36:29.138Z,43.99
2022-09-06T14:38:57.376Z,44.15
2022-09-06T14:41:25.391Z,44.20
2022-09-06T14:43:54.564Z,43.99
2022-09-06T14:46:23.428Z,43.91
2022-09-06T14:48:57.332Z,43.87
2022-09-06T14:51:24.703Z,43.91
2022-09-06T14:53:54.983Z,44.28
2022-09-06T14:56:22.366Z,44.35
2022-09-06T14:58:49.739Z,44.16
2022-09-06T15:01:18.456Z,44.08
2022-09-06T15:03:47.310Z,43.94
2022-09-06T15:06:16.091Z,44.19
2022-09-06T15:08:43.482Z,44.56
2022-09-06T15:11:12.125Z,44.65
2022-09-06T15:13:40.175Z,44.27
2022-09-06T15:16:09.814Z,44.38
2022-09-06T15:18:37.004Z,44.56
2022-09-06T15:21:11.050Z,44.29
2022-09-06T15:23:38.438Z,44.33
2022-09-06T15:26:07.777Z,44.50
2022-09-06T15:28:37.046Z,44.45
2022-09-06T15:31:04.354Z,43.94
2022-09-06T15:33:32.819Z,43.95
2022-09-06T15:36:00.267Z,44.07
2022-09-06T15:38:27.414Z,44.18
2022-09-06T15:41:07.822Z,43.95
2022-09-06T15:43:39.457Z,44.02
2022-09-06T15:46:06.611Z,44.12
2022-09-06T15:48:41.200Z,43.79
2022-09-06T15:51:08.829Z,44.14
2022-09-06T15:53:36.516Z,43.97
2022-09-06T15:56:03.967Z,44.18
2022-09-06T15:58:31.596Z,44.42
2022-09-06T16:01:05.499Z,44.28
2022-09-06T16:03:35.586Z,44.13
2022-09-06T16:08:55.417Z,44.10
2022-09-06T16:11:22.548Z,44.09
2022-09-06T16:13:50.025Z,43.96
2022-09-06T16:16:19.268Z,44.29
2022-09-06T16:18:46.453Z,44.13
2022-09-06T16:21:15.680Z,43.65
2022-09-06T16:23:47.307Z,44.10
2022-09-06T16:26:16.932Z,44.13
2022-09-06T16:28:48.437Z,43.75
2022-09-06T16:31:15.815Z,43.71
2022-09-06T16:33:44.476Z,43.69
2022-09-06T16:36:12.585Z,43.94
2022-09-06T16:38:41.227Z,44.10
2022-09-06T16:41:10.941Z,43.94
2022-09-06T16:43:38.384Z,43.81
2022-09-06T16:46:06.455Z,44.00
2022-09-06T16:48:33.915Z,43.98
2022-09-06T16:51:11.132Z,44.54
2022-09-06T16:53:40.104Z,44.42
2022-09-06T16:56:07.878Z,44.49
2022-09-06T16:58:35.010Z,44.57
2022-09-06T17:01:02.626Z,44.28
2022-09-06T17:03:29.785Z,44.67
2022-09-06T17:05:57.144Z,44.44
2022-09-06T17:08:25.795Z,44.29
2022-09-06T17:10:52.941Z,44.45
2022-09-06T17:13:20.035Z,44.31
2022-09-06T17:15:53.038Z,44.42
2022-09-06T17:18:20.290Z,43.94
2022-09-06T17:20:54.932Z,44.36
2022-09-06T17:23:22.186Z,44.43
2022-09-06T17:25:50.687Z,44.14
2022-09-06T17:28:17.886Z,44.19
2022-09-06T17:30:45.013Z,44.25
2022-09-06T17:33:12.375Z,44.20
2022-09-06T17:35:39.554Z,44.07
2022-09-06T17:38:06.696Z,44.19
2022-09-06T17:40:33.903Z,44.18
2022-09-06T17:43:02.478Z,44.27
2022-09-06T17:45:29.670Z,44.01
2022-09-06T17:47:56.841Z,44.47
2022-09-06T17:50:24.009Z,44.04
2022-09-06T17:52:51.144Z,44.00
2022-09-06T17:55:18.285Z,44.17
2022-09-06T17:57:45.406Z,44.21
2022-09-06T18:00:14.978Z,44.06
2022-09-06T18:02:42.097Z,43.86
2022-09-06T18:05:09.805Z,43.95
2022-09-06T18:07:37.105Z,44.25
2022-09-06T18:10:04.986Z,43.94
2022-09-06T18:12:32.115Z,44.33
2022-09-06T18:14:59.582Z,44.30
2022-09-06T18:17:28.270Z,44.26
2022-09-06T18:19:55.442Z,44.00
2022-09-06T18:22:22.554Z,44.24
2022-09-06T18:24:49.879Z,44.47
2022-09-06T18:27:17.643Z,44.00
2022-09-06T18:29:44.762Z,44.32
2022-09-06T18:32:11.989Z,43.93
2022-09-06T18:34:40.508Z,44.22
2022-09-06T18:37:07.637Z,44.10
2022-09-06T18:39:34.793Z,44.00
2022-09-06T18:42:01.958Z,44.13
2022-09-06T18:44:31.860Z,43.99
2022-09-06T18:47:00.652Z,44.04
2022-09-06T18:49:28.341Z,44.07
2022-09-06T18:51:56.849Z,43.97
2022-09-06T18:54:24.026Z,43.75
2022-09-06T18:56:51.184Z,44.15
2022-09-06T18:59:18.543Z,43.97
2022-09-06T19:01:45.961Z,44.25
2022-09-06T19:04:13.407Z,44.46
2022-09-06T19:06:42.293Z,44.01
2022-09-06T19:09:13.867Z,44.00
2022-09-06T19:11:41.577Z,44.24
2022-09-06T19:14:09.033Z,43.97
2022-09-06T19:16:36.384Z,44.18
2022-09-06T19:19:05.120Z,44.07
2022-09-06T19:21:33.527Z,43.91
2022-09-06T19:24:05.197Z,43.89
2022-09-06T19:26:35.879Z,44.05
2022-09-06T19:29:04.985Z,43.82
2022-09-06T19:31:33.869Z,44.21
2022-09-06T19:34:01.582Z,44.24
2022-09-06T19:36:29.669Z,44.22
2022-09-06T19:39:06.307Z,43.96
2022-09-06T19:41:38.378Z,44.26
2022-09-06T19:44:06.625Z,44.26
2022-09-06T19:46:34.009Z,44.27
2022-09-06T19:49:01.464Z,43.75
2022-09-06T19:51:28.670Z,44.12
2022-09-06T19:53:56.861Z,44.20
2022-09-06T19:56:25.609Z,44.02
2022-09-06T19:58:55.211Z,44.33
2022-09-06T20:01:23.170Z,44.10
2022-09-06T20:03:50.734Z,44.08
2022-09-06T20:06:17.899Z,44.18
2022-09-06T20:08:49.664Z,44.05
2022-09-06T20:11:17.074Z,44.10
2022-09-06T20:13:44.253Z,44.23
2022-09-06T20:16:13.446Z,44.09
2022-09-06T20:18:40.955Z,44.06
2022-09-06T20:21:08.229Z,44.18
2022-09-06T20:23:36.038Z,43.90
2022-09-06T20:26:06.067Z,43.97
2022-09-06T20:28:34.078Z,43.96
2022-09-06T20:31:02.517Z,43.94
2022-09-06T20:33:31.021Z,44.09
2022-09-06T20:35:59.306Z,43.97
2022-09-06T20:38:26.485Z,44.28
2022-09-06T20:41:01.340Z,44.06
2022-09-06T20:43:29.273Z,44.33
2022-09-06T20:45:56.375Z,44.24
2022-09-06T20:48:23.609Z,43.99
2022-09-06T20:50:59.723Z,44.43
2022-09-06T20:53:26.864Z,44.21
2022-09-06T20:55:58.284Z,44.42
2022-09-06T20:58:26.011Z,44.32
2022-09-06T21:00:53.422Z,44.37
2022-09-06T21:03:21.192Z,44.48
2022-09-06T21:05:48.413Z,44.26
2022-09-06T21:08:17.310Z,44.00
2022-09-06T21:10:45.077Z,44.13
2022-09-06T21:13:12.585Z,43.93
2022-09-06T21:15:40.123Z,44.30
2022-09-06T21:18:08.581Z,44.29
2022-09-06T21:20:35.814Z,44.19
2022-09-06T21:23:03.189Z,43.91
2022-09-06T21:25:31.793Z,43.87
2022-09-06T21:27:58.939Z,43.91
2022-09-06T21:30:26.037Z,44.40
2022-09-06T21:32:54.321Z,44.14
2022-09-06T21:35:21.501Z,44.24
2022-09-06T21:37:48.697Z,44.45
2022-09-06T21:40:15.983Z,44.46
2022-09-06T21:42:44.483Z,44.00
2022-09-06T21:45:11.968Z,44.06
2022-09-06T21:47:39.247Z,44.50
2022-09-06T21:50:07.107Z,44.18
2022-09-06T21:52:34.235Z,44.38
2022-09-06T21:55:01.436Z,44.24
2022-09-06T21:57:28.593Z,44.16
2022-09-06T21:59:57.079Z,43.79
2022-09-06T22:02:24.246Z,44.20
2022-09-06T22:04:51.400Z,44.28
2022-09-06T22:07:18.554Z,43.93
2022-09-06T22:09:45.667Z,43.91
2022-09-06T22:12:12.805Z,43.85
2022-09-06T22:14:39.957Z,44.17
2022-09-06T22:17:08.425Z,43.92
2022-09-06T22:19:35.569Z,43.96
2022-09-06T22:22:02.687Z,43.87
2022-09-06T22:24:29.827Z,44.35
2022-09-06T22:26:56.944Z,44.40
2022-09-06T22:29:24.085Z,44.02
2022-09-06T22:31:51.256Z,44.45
2022-09-06T22:34:20.052Z,44.37
2022-09-06T22:36:47.201Z,44.44
2022-09-06T22:39:14.340Z,44.20
2022-09-06T22:41:41.476Z,44.24
2022-09-06T22:44:08.617Z,44.34
2022-09-06T22:46:36.401Z,44.23
2022-09-06T22:49:03.717Z,43.99
2022-09-06T22:51:32.335Z,44.33
2022-09-06T22:53:59.528Z,44.41
2022-09-06T22:56:26.636Z,43.86
2022-09-06T22:58:53.773Z,43.88
2022-09-06T23:01:21.003Z,44.22
2022-09-06T23:03:48.259Z,44.09
2022-09-06T23:06:15.398Z,44.35
2022-09-06T23:08:43.903Z,44.19
2022-09-06T23:11:13.495Z,44.20
2022-09-06T23:13:41.003Z,44.29
2022-09-06T23:16:09.747Z,44.10
2022-09-06T23:18:36.999Z,43.96
2022-09-06T23:21:06.352Z,44.38
2022-09-06T23:23:34.156Z,44.39
2022-09-06T23:26:07.498Z,44.05
2022-09-06T23:28:35.324Z,44.43
2022-09-06T23:31:03.563Z,44.02
2022-09-06T23:33:30.944Z,44.20
2022-09-06T23:35:58.301Z,44.37
2022-09-06T23:38:25.434Z,44.36
2022-09-06T23:40:52.605Z,44.37
2022-09-06T23:43:21.083Z,43.84
2022-09-06T23:45:48.239Z,44.27
2022-09-06T23:48:15.521Z,44.20
2022-09-06T23:50:43.627Z,44.06
2022-09-06T23:53:11.354Z,44.23
2022-09-06T23:55:38.483Z,44.09
2022-09-06T23:58:05.753Z,43.98
